createdAt,value
2023-03-18T00:01:55.408Z,-5.33
2023-03-18T00:04:23.622Z,-4.95
2023-03-18T00:06:50.443Z,-5.06
2023-03-18T00:09:17.259Z,-5.00
2023-03-18T00:11:45.476Z,-5.17
2023-03-18T00:14:12.046Z,-5.32
2023-03-18T00:16:40.926Z,-5.36
2023-03-18T00:19:07.820Z,-5.56
2023-03-18T00:21:34.253Z,-5.04
2023-03-18T00:24:01.886Z,-5.36
2023-03-18T00:26:28.757Z,-5.59
2023-03-18T00:28:56.652Z,-5.54
2023-03-18T00:31:24.057Z,-5.47
2023-03-18T00:33:51.445Z,-5.63
2023-03-18T00:36:24.838Z,-5.81
2023-03-18T00:38:56.938Z,-5.48
2023-03-18T00:41:25.659Z,-5.19
2023-03-18T00:43:53.559Z,-5.50
2023-03-18T00:46:23.833Z,-5.39
2023-03-18T00:48:52.519Z,-5.17
2023-03-18T00:51:22.075Z,-5.19
2023-03-18T00:53:55.435Z,-5.84
2023-03-18T00:56:24.996Z,-5.83
2023-03-18T00:58:53.255Z,-5.63
2023-03-18T01:01:21.319Z,-6.00
2023-03-18T01:03:49.497Z,-6.01
2023-03-18T01:06:22.022Z,-6.04
2023-03-18T01:08:49.496Z,-5.95
2023-03-18T01:11:16.329Z,-5.78
2023-03-18T01:13:45.578Z,-6.05
2023-03-18T01:16:13.627Z,-5.83
2023-03-18T01:18:40.942Z,-5.91
2023-03-18T01:21:08.719Z,-6.06
2023-03-18T01:23:36.640Z,-5.67
2023-03-18T01:26:04.029Z,-5.86
2023-03-18T01:28:32.008Z,-5.93
2023-03-18T01:30:59.892Z,-5.84
2023-03-18T01:33:27.061Z,-5.97
2023-03-18T01:35:57.173Z,-5.83
2023-03-18T01:38:26.830Z,-5.84
2023-03-18T01:40:54.043Z,-6.13
2023-03-18T01:43:24.502Z,-6.21
2023-03-18T01:45:55.617Z,-6.18
2023-03-18T01:48:25.180Z,-6.11
2023-03-18T01:51:03.485Z,-6.04
2023-03-18T01:53:40.199Z,-5.81
2023-03-18T01:56:08.437Z,-6.07
2023-03-18T01:58:40.593Z,-5.81
2023-03-18T02:01:31.434Z,-6.23
2023-03-18T02:04:00.454Z,-5.96
2023-03-18T02:06:27.200Z,-5.96
2023-03-18T02:08:54.917Z,-5.98
2023-03-18T02:11:22.945Z,-5.64
2023-03-18T02:13:50.470Z,-6.15
2023-03-18T02:16:28.431Z,-5.89
2023-03-18T02:19:04.864Z,-5.71
2023-03-18T02:24:36.462Z,-6.20
2023-03-18T02:27:19.106Z,-6.40
2023-03-18T02:29:47.756Z,-6.24
2023-03-18T02:32:16.430Z,-6.26
2023-03-18T02:34:45.090Z,-6.16
2023-03-18T02:37:12.042Z,-6.67
2023-03-18T02:39:39.350Z,-6.32
2023-03-18T02:42:06.448Z,-6.21
2023-03-18T02:44:39.865Z,-6.11
2023-03-18T02:49:57.694Z,-6.11
2023-03-18T02:52:24.877Z,-6.46
2023-03-18T02:54:51.493Z,-6.60
2023-03-18T02:57:18.343Z,-6.59
2023-03-18T02:59:45.360Z,-6.27
2023-03-18T03:02:12.094Z,-6.54
2023-03-18T03:04:39.105Z,-6.25
2023-03-18T03:07:07.061Z,-6.58
2023-03-18T03:09:34.760Z,-6.50
2023-03-18T03:12:01.772Z,-6.37
2023-03-18T03:14:29.128Z,-6.65
2023-03-18T03:16:57.306Z,-6.36
2023-03-18T03:19:23.827Z,-6.23
2023-03-18T03:21:50.852Z,-6.04
2023-03-18T03:24:17.362Z,-5.95
2023-03-18T03:26:44.987Z,-6.09
2023-03-18T03:29:12.375Z,-6.14
2023-03-18T03:31:38.919Z,-5.90
2023-03-18T03:34:06.266Z,-6.11
2023-03-18T03:36:33.076Z,-6.47
2023-03-18T03:38:59.697Z,-6.21
2023-03-18T03:41:26.910Z,-6.52
2023-03-18T03:43:54.334Z,-6.34
2023-03-18T03:46:22.201Z,-6.26
2023-03-18T03:48:49.539Z,-6.04
2023-03-18T03:51:16.497Z,-6.46
2023-03-18T03:53:45.448Z,-6.38
2023-03-18T03:56:12.342Z,-6.05
2023-03-18T03:58:39.562Z,-6.18
2023-03-18T04:01:07.966Z,-5.93
2023-03-18T04:03:36.799Z,-6.01
2023-03-18T04:06:06.063Z,-6.02
2023-03-18T04:08:32.816Z,-5.92
2023-03-18T04:10:59.778Z,-6.26
2023-03-18T04:13:26.582Z,-5.93
2023-03-18T04:15:54.153Z,-5.43
2023-03-18T04:18:21.000Z,-5.45
2023-03-18T04:20:48.011Z,-5.40
2023-03-18T04:23:15.278Z,-5.86
2023-03-18T04:25:44.007Z,-5.59
2023-03-18T04:28:10.818Z,-5.16
2023-03-18T04:30:37.465Z,-5.00
2023-03-18T04:33:04.973Z,-5.20
2023-03-18T04:35:31.726Z,-4.73
2023-03-18T04:37:59.824Z,-4.69
2023-03-18T04:40:26.977Z,-4.94
2023-03-18T04:42:53.822Z,-4.45
2023-03-18T04:45:22.417Z,-4.28
2023-03-18T04:47:50.039Z,-4.07
2023-03-18T04:50:17.141Z,-3.90
2023-03-18T04:52:44.438Z,-3.79
2023-03-18T04:55:14.637Z,-4.09
2023-03-18T04:57:42.107Z,-4.00
2023-03-18T05:00:14.225Z,-3.67
2023-03-18T05:02:43.140Z,-3.64
2023-03-18T05:05:10.101Z,-3.66
2023-03-18T05:07:39.713Z,-3.29
2023-03-18T05:10:08.961Z,-2.92
2023-03-18T05:12:36.507Z,-2.99
2023-03-18T05:15:04.834Z,-2.70
2023-03-18T05:17:31.806Z,-2.70
2023-03-18T05:19:58.987Z,-2.57
2023-03-18T05:22:25.805Z,-2.40
2023-03-18T05:24:52.999Z,-2.11
2023-03-18T05:27:20.167Z,-2.00
2023-03-18T05:29:47.758Z,-1.84
2023-03-18T05:32:16.265Z,-1.79
2023-03-18T05:34:43.707Z,-1.56
2023-03-18T05:37:13.516Z,-1.43
2023-03-18T05:39:44.838Z,-1.37
2023-03-18T05:42:12.016Z,-1.21
2023-03-18T05:44:39.636Z,-1.26
2023-03-18T05:47:08.956Z,-0.82
2023-03-18T05:49:39.417Z,-0.52
2023-03-18T05:52:10.364Z,-0.48
2023-03-18T05:54:37.814Z,-0.14
2023-03-18T05:57:04.376Z,0.04
2023-03-18T05:59:31.549Z,0.01
2023-03-18T06:01:58.432Z,0.24
2023-03-18T06:04:26.507Z,0.62
2023-03-18T06:06:54.596Z,0.75
2023-03-18T06:09:21.782Z,0.41
2023-03-18T06:11:48.738Z,0.57
2023-03-18T06:14:15.299Z,1.22
2023-03-18T06:16:42.831Z,1.53
2023-03-18T06:19:11.699Z,1.38
2023-03-18T06:21:39.564Z,1.49
2023-03-18T06:24:06.849Z,2.05
2023-03-18T06:26:34.078Z,2.06
2023-03-18T06:29:01.038Z,1.93
2023-03-18T06:31:27.780Z,2.23
2023-03-18T06:33:54.583Z,1.69
2023-03-18T06:36:22.091Z,2.39
2023-03-18T06:38:49.223Z,2.58
2023-03-18T06:41:17.302Z,3.25
2023-03-18T06:43:47.323Z,3.65
2023-03-18T06:46:13.940Z,3.18
2023-03-18T06:48:43.940Z,3.75
2023-03-18T06:51:12.009Z,3.32
2023-03-18T06:53:39.625Z,3.82
2023-03-18T06:56:07.244Z,3.73
2023-03-18T06:58:35.021Z,4.56
2023-03-18T07:01:02.256Z,3.63
2023-03-18T07:03:29.946Z,3.75
2023-03-18T07:05:56.738Z,4.64
2023-03-18T07:08:24.081Z,5.23
2023-03-18T07:10:54.725Z,4.76
2023-03-18T07:13:23.561Z,3.78
2023-03-18T07:15:50.901Z,4.08
2023-03-18T07:18:17.976Z,4.82
2023-03-18T07:20:46.020Z,4.97
2023-03-18T07:23:12.893Z,4.54
2023-03-18T07:25:41.358Z,5.06
2023-03-18T07:28:07.943Z,5.81
2023-03-18T07:30:34.499Z,7.00
2023-03-18T07:33:03.282Z,6.70
2023-03-18T07:35:30.290Z,6.14
2023-03-18T07:37:56.957Z,6.34
2023-03-18T07:40:23.924Z,5.79
2023-03-18T07:42:51.232Z,7.41
2023-03-18T07:45:17.857Z,5.93
2023-03-18T07:47:47.019Z,6.85
2023-03-18T07:50:14.257Z,6.57
2023-03-18T07:52:41.333Z,7.28
2023-03-18T07:55:08.725Z,8.09
2023-03-18T07:57:36.180Z,7.68
2023-03-18T08:00:05.674Z,6.75
2023-03-18T08:02:40.653Z,8.32
2023-03-18T08:05:08.271Z,8.44
2023-03-18T08:07:35.597Z,8.64
2023-03-18T08:10:02.370Z,8.80
2023-03-18T08:12:41.626Z,5.91
2023-03-18T08:15:18.057Z,6.74
2023-03-18T08:17:44.768Z,5.49
2023-03-18T08:20:12.881Z,8.38
2023-03-18T08:22:39.674Z,9.45
2023-03-18T08:25:06.975Z,9.78
2023-03-18T08:27:33.591Z,8.78
2023-03-18T08:30:02.312Z,7.33
2023-03-18T08:32:31.459Z,7.17
2023-03-18T08:34:58.187Z,5.05
2023-03-18T08:37:25.307Z,4.40
2023-03-18T08:39:52.015Z,6.66
2023-03-18T08:42:18.684Z,5.28
2023-03-18T08:44:45.263Z,9.16
2023-03-18T08:47:12.372Z,9.19
2023-03-18T08:49:39.114Z,10.77
2023-03-18T08:52:06.278Z,11.16
2023-03-18T08:54:33.219Z,10.39
2023-03-18T08:57:00.058Z,8.79
2023-03-18T08:59:26.575Z,6.10
2023-03-18T09:01:53.359Z,8.99
2023-03-18T09:04:19.948Z,7.37
2023-03-18T09:06:48.197Z,8.65
2023-03-18T09:09:15.400Z,10.46
2023-03-18T09:11:41.978Z,9.77
2023-03-18T09:14:08.493Z,7.32
2023-03-18T09:16:35.644Z,9.77
2023-03-18T09:19:03.008Z,10.98
2023-03-18T09:21:30.874Z,10.81
2023-03-18T09:23:58.377Z,10.36
2023-03-18T09:26:25.048Z,11.31
2023-03-18T09:28:51.582Z,10.97
2023-03-18T09:31:18.689Z,11.68
2023-03-18T09:33:47.150Z,10.19
2023-03-18T09:36:14.140Z,9.79
2023-03-18T09:38:41.895Z,11.47
2023-03-18T09:41:24.075Z,11.66
2023-03-18T09:44:17.096Z,9.87
2023-03-18T09:46:57.581Z,11.24
2023-03-18T09:50:04.857Z,10.13
2023-03-18T09:52:38.642Z,8.89
2023-03-18T09:55:26.624Z,12.25
2023-03-18T09:58:02.487Z,8.57
2023-03-18T10:00:37.076Z,11.38
2023-03-18T10:03:10.394Z,6.77
2023-03-18T10:05:48.240Z,7.74
2023-03-18T10:08:23.734Z,12.20
2023-03-18T10:10:50.595Z,10.81
2023-03-18T10:13:42.070Z,10.02
2023-03-18T10:16:19.870Z,12.83
2023-03-18T10:18:47.189Z,13.57
2023-03-18T10:21:29.021Z,9.56
2023-03-18T10:24:24.777Z,11.15
2023-03-18T10:27:08.246Z,10.53
2023-03-18T10:29:41.795Z,12.62
2023-03-18T10:32:29.312Z,12.69
2023-03-18T10:35:14.212Z,12.49
2023-03-18T10:37:57.259Z,13.76
2023-03-18T10:40:25.168Z,11.99
2023-03-18T10:42:53.359Z,9.50
2023-03-18T10:45:24.642Z,11.42
2023-03-18T10:48:01.560Z,10.63
2023-03-18T10:50:35.797Z,12.77
2023-03-18T10:53:07.914Z,12.00
2023-03-18T10:55:57.763Z,13.75
2023-03-18T10:58:24.524Z,12.90
2023-03-18T11:00:52.254Z,13.28
2023-03-18T11:03:40.461Z,12.73
2023-03-18T11:06:15.818Z,10.59
2023-03-18T11:08:45.982Z,12.96
2023-03-18T11:11:34.593Z,12.99
2023-03-18T11:14:04.184Z,10.72
2023-03-18T11:16:49.536Z,12.98
2023-03-18T11:19:29.266Z,12.72
2023-03-18T11:22:06.228Z,13.28
2023-03-18T11:24:39.050Z,13.57
2023-03-18T11:27:24.633Z,10.67
2023-03-18T11:29:58.016Z,13.26
2023-03-18T11:32:30.669Z,8.11
2023-03-18T11:35:00.035Z,7.65
2023-03-18T11:37:37.963Z,8.34
2023-03-18T11:40:23.054Z,8.17
2023-03-18T11:42:55.676Z,9.54
2023-03-18T11:45:45.455Z,9.67
2023-03-18T11:48:17.336Z,10.89
2023-03-18T11:51:05.456Z,8.81
2023-03-18T11:53:50.762Z,8.18
2023-03-18T11:56:34.820Z,8.43
2023-03-18T11:59:20.467Z,8.28
2023-03-18T12:01:49.010Z,6.98
2023-03-18T12:04:31.647Z,9.69
2023-03-18T12:07:38.430Z,7.05
2023-03-18T12:10:24.110Z,6.89
2023-03-18T12:13:11.389Z,7.10
2023-03-18T12:16:03.181Z,8.43
2023-03-18T12:18:42.729Z,7.63
2023-03-18T12:21:27.602Z,10.67
2023-03-18T12:24:34.139Z,8.45
2023-03-18T12:27:20.657Z,8.40
2023-03-18T12:30:02.999Z,8.66
2023-03-18T12:32:43.297Z,9.28
2023-03-18T12:35:25.815Z,9.78
2023-03-18T12:38:05.090Z,10.25
2023-03-18T12:41:04.004Z,10.81
2023-03-18T12:43:54.995Z,11.27
2023-03-18T12:46:46.339Z,11.73
2023-03-18T12:49:34.223Z,12.32
2023-03-18T12:52:07.668Z,12.67
2023-03-18T12:54:48.763Z,12.89
2023-03-18T12:57:37.452Z,13.12
2023-03-18T13:00:18.121Z,13.34
2023-03-18T13:03:05.501Z,13.20
2023-03-18T13:05:42.186Z,13.41
2023-03-18T13:08:31.829Z,14.20
2023-03-18T13:11:24.262Z,14.06
2023-03-18T13:13:56.568Z,14.26
2023-03-18T13:16:24.674Z,14.51
2023-03-18T13:18:54.441Z,14.66
2023-03-18T13:21:25.678Z,14.81
2023-03-18T13:24:21.242Z,15.27
2023-03-18T13:27:27.518Z,14.87
2023-03-18T13:30:05.573Z,15.06
2023-03-18T13:32:59.248Z,15.70
2023-03-18T13:35:37.409Z,15.27
2023-03-18T13:38:12.095Z,15.16
2023-03-18T13:41:01.869Z,15.40
2023-03-18T13:43:31.628Z,15.67
2023-03-18T13:45:59.321Z,15.93
2023-03-18T13:48:31.307Z,15.54
2023-03-18T13:50:59.177Z,15.41
2023-03-18T13:53:30.459Z,15.64
2023-03-18T13:56:02.850Z,15.75
2023-03-18T13:58:44.525Z,15.57
2023-03-18T14:01:24.893Z,15.47
2023-03-18T14:03:56.391Z,15.61
2023-03-18T14:06:45.732Z,15.44
2023-03-18T14:09:33.564Z,15.25
2023-03-18T14:12:18.248Z,14.93
2023-03-18T14:15:17.402Z,14.69
2023-03-18T14:17:47.203Z,14.50
2023-03-18T14:20:27.259Z,14.24
2023-03-18T14:22:56.598Z,13.94
2023-03-18T14:25:40.287Z,13.76
2023-03-18T14:28:14.972Z,13.74
2023-03-18T14:30:44.537Z,13.69
2023-03-18T14:33:32.610Z,13.41
2023-03-18T14:36:10.304Z,12.97
2023-03-18T14:38:48.950Z,12.90
2023-03-18T14:41:24.323Z,12.59
2023-03-18T14:44:16.728Z,12.38
2023-03-18T14:46:45.819Z,11.97
2023-03-18T14:49:32.265Z,11.59
2023-03-18T14:52:00.194Z,11.44
2023-03-18T14:54:30.817Z,11.25
2023-03-18T14:56:58.578Z,11.15
2023-03-18T14:59:25.699Z,10.98
2023-03-18T15:01:54.740Z,9.83
2023-03-18T15:04:24.373Z,8.53
2023-03-18T15:06:52.676Z,8.09
2023-03-18T15:09:25.013Z,8.29
2023-03-18T15:11:53.204Z,8.13
2023-03-18T15:14:22.824Z,7.38
2023-03-18T15:16:51.736Z,7.67
2023-03-18T15:19:19.846Z,6.48
2023-03-18T15:21:46.701Z,7.39
2023-03-18T15:24:19.937Z,6.83
2023-03-18T15:26:57.327Z,6.71
2023-03-18T15:29:28.374Z,6.74
2023-03-18T15:32:18.188Z,6.56
2023-03-18T15:34:52.534Z,6.18
2023-03-18T15:37:35.639Z,6.02
2023-03-18T15:40:31.611Z,5.31
2023-03-18T15:43:18.539Z,5.46
2023-03-18T15:45:52.078Z,5.23
2023-03-18T15:48:26.513Z,5.09
2023-03-18T15:50:56.443Z,4.47
2023-03-18T15:53:26.171Z,4.75
2023-03-18T15:55:55.632Z,4.35
2023-03-18T15:58:26.599Z,4.37
2023-03-18T16:00:55.920Z,4.13
2023-03-18T16:03:25.743Z,3.84
2023-03-18T16:05:53.064Z,3.50
2023-03-18T16:08:21.263Z,3.08
2023-03-18T16:10:52.086Z,2.36
2023-03-18T16:13:24.486Z,1.40
2023-03-18T16:15:52.600Z,1.95
2023-03-18T16:18:21.277Z,1.71
2023-03-18T16:20:49.843Z,1.87
2023-03-18T16:23:18.083Z,1.25
2023-03-18T16:25:51.704Z,1.28
2023-03-18T16:28:22.229Z,1.16
2023-03-18T16:30:51.776Z,0.70
2023-03-18T16:33:21.163Z,0.77
2023-03-18T16:35:56.162Z,0.35
2023-03-18T16:38:23.102Z,0.28
2023-03-18T16:40:50.006Z,0.57
2023-03-18T16:43:21.633Z,0.62
2023-03-18T16:45:50.215Z,0.58
2023-03-18T16:48:20.727Z,0.63
2023-03-18T16:50:50.150Z,0.68
2023-03-18T16:53:21.669Z,0.46
2023-03-18T16:55:53.720Z,0.79
2023-03-18T16:58:28.290Z,1.04
2023-03-18T17:00:55.303Z,1.09
2023-03-18T17:03:22.430Z,1.11
2023-03-18T17:05:50.099Z,1.37
2023-03-18T17:08:18.216Z,1.42
2023-03-18T17:10:48.677Z,1.10
2023-03-18T17:13:19.928Z,0.20
2023-03-18T17:15:46.832Z,-0.22
2023-03-18T17:18:16.557Z,-0.36
2023-03-18T17:20:44.262Z,-0.29
2023-03-18T17:23:15.852Z,-0.21
2023-03-18T17:25:47.775Z,-0.59
2023-03-18T17:28:20.736Z,-0.90
2023-03-18T17:30:48.110Z,0.06
2023-03-18T17:33:23.563Z,0.38
2023-03-18T17:35:51.736Z,0.00
2023-03-18T17:38:20.080Z,0.45
2023-03-18T17:40:48.902Z,0.66
2023-03-18T17:43:31.293Z,1.12
2023-03-18T17:46:00.166Z,1.08
2023-03-18T17:48:29.188Z,1.11
2023-03-18T17:50:58.083Z,0.97
2023-03-18T17:53:47.417Z,1.10
2023-03-18T17:56:16.208Z,0.92
2023-03-18T17:58:46.670Z,1.03
2023-03-18T18:01:18.001Z,0.83
2023-03-18T18:03:45.158Z,0.74
2023-03-18T18:06:18.271Z,0.81
2023-03-18T18:08:45.316Z,0.87
2023-03-18T18:11:19.761Z,0.65
2023-03-18T18:13:47.103Z,0.24
2023-03-18T18:16:13.853Z,-1.17
2023-03-18T18:18:41.117Z,-2.05
2023-03-18T18:21:19.300Z,-1.67
2023-03-18T18:23:46.105Z,-1.08
2023-03-18T18:26:15.361Z,-0.75
2023-03-18T18:28:44.732Z,-0.31
2023-03-18T18:31:12.629Z,-0.25
2023-03-18T18:33:41.760Z,-0.18
2023-03-18T18:36:09.278Z,-0.01
2023-03-18T18:38:36.025Z,-0.04
2023-03-18T18:41:03.396Z,-0.13
2023-03-18T18:43:30.116Z,-0.10
2023-03-18T18:45:57.585Z,-0.17
2023-03-18T18:48:34.673Z,-0.15
2023-03-18T18:51:02.918Z,-0.30
2023-03-18T18:53:35.986Z,-0.27
2023-03-18T18:56:25.639Z,-0.25
2023-03-18T18:58:52.774Z,-0.36
2023-03-18T19:01:19.556Z,-0.70
2023-03-18T19:03:47.701Z,-0.65
2023-03-18T19:06:31.745Z,-0.66
2023-03-18T19:09:01.062Z,-0.84
2023-03-18T19:11:28.497Z,-0.67
2023-03-18T19:14:17.774Z,-0.71
2023-03-18T19:16:45.711Z,-0.90
2023-03-18T19:19:15.742Z,-1.15
2023-03-18T19:21:43.293Z,-1.20
2023-03-18T19:24:24.983Z,-0.98
2023-03-18T19:26:54.298Z,-1.24
2023-03-18T19:29:21.549Z,-1.00
2023-03-18T19:31:48.173Z,-0.97
2023-03-18T19:34:16.854Z,-0.96
2023-03-18T19:36:47.906Z,-1.04
2023-03-18T19:39:16.905Z,-1.30
2023-03-18T19:41:45.079Z,-1.01
2023-03-18T19:44:17.278Z,-0.96
2023-03-18T19:46:46.011Z,-1.18
2023-03-18T19:49:26.497Z,-1.09
2023-03-18T19:51:54.341Z,-1.12
2023-03-18T19:54:39.199Z,-1.31
2023-03-18T19:57:15.454Z,-1.10
2023-03-18T19:59:42.964Z,-1.16
2023-03-18T20:02:27.998Z,-1.31
2023-03-18T20:04:57.408Z,-1.52
2023-03-18T20:07:26.426Z,-2.01
2023-03-18T20:09:53.958Z,-2.25
2023-03-18T20:12:31.394Z,-2.61
2023-03-18T20:14:57.875Z,-2.54
2023-03-18T20:17:29.774Z,-2.56
2023-03-18T20:19:57.064Z,-2.65
2023-03-18T20:22:29.813Z,-2.26
2023-03-18T20:24:56.586Z,-1.99
2023-03-18T20:27:23.299Z,-2.02
2023-03-18T20:29:49.883Z,-2.00
2023-03-18T20:32:16.664Z,-2.17
2023-03-18T20:34:45.466Z,-2.04
2023-03-18T20:37:28.132Z,-2.08
2023-03-18T20:39:55.038Z,-2.59
2023-03-18T20:42:21.519Z,-2.36
2023-03-18T20:44:48.070Z,-2.30
2023-03-18T20:47:14.985Z,-2.18
2023-03-18T20:49:43.930Z,-2.38
2023-03-18T20:52:29.169Z,-2.26
2023-03-18T20:54:56.848Z,-2.22
2023-03-18T20:57:24.776Z,-2.40
2023-03-18T20:59:51.652Z,-2.28
2023-03-18T21:02:26.412Z,-2.30
2023-03-18T21:04:52.978Z,-2.42
2023-03-18T21:07:20.035Z,-2.54
2023-03-18T21:09:46.481Z,-2.43
2023-03-18T21:12:17.019Z,-2.63
2023-03-18T21:14:44.162Z,-2.48
2023-03-18T21:17:20.696Z,-2.36
2023-03-18T21:19:49.754Z,-2.41
2023-03-18T21:25:22.210Z,-2.45
2023-03-18T21:27:49.705Z,-2.50
2023-03-18T21:30:21.254Z,-2.43
2023-03-18T21:32:49.797Z,-2.51
2023-03-18T21:35:22.482Z,-2.52
2023-03-18T21:37:49.516Z,-2.77
2023-03-18T21:40:18.975Z,-2.67
2023-03-18T21:42:45.944Z,-2.68
2023-03-18T21:45:15.999Z,-2.74
2023-03-18T21:47:42.675Z,-2.81
2023-03-18T21:50:17.997Z,-2.80
2023-03-18T21:52:45.736Z,-2.97
2023-03-18T21:55:19.660Z,-2.84
2023-03-18T21:57:48.988Z,-2.88
2023-03-18T22:00:19.295Z,-2.89
2023-03-18T22:02:47.399Z,-2.92
2023-03-18T22:05:29.841Z,-2.92
2023-03-18T22:07:56.662Z,-2.92
2023-03-18T22:10:23.285Z,-3.22
2023-03-18T22:12:50.354Z,-3.00
2023-03-18T22:15:33.252Z,-2.97
2023-03-18T22:18:00.001Z,-3.14
2023-03-18T22:20:27.347Z,-3.11
2023-03-18T22:22:54.041Z,-3.17
2023-03-18T22:25:31.869Z,-3.31
2023-03-18T22:27:59.810Z,-3.17
2023-03-18T22:30:29.102Z,-3.31
2023-03-18T22:32:56.869Z,-3.66
2023-03-18T22:35:26.900Z,-3.45
2023-03-18T22:37:54.174Z,-3.39
2023-03-18T22:40:23.160Z,-3.58
2023-03-18T22:42:52.849Z,-3.67
2023-03-18T22:45:22.678Z,-3.79
2023-03-18T22:47:50.904Z,-3.57
2023-03-18T22:50:18.356Z,-3.58
2023-03-18T22:52:46.170Z,-3.56
2023-03-18T22:55:21.086Z,-3.54
2023-03-18T22:57:49.027Z,-3.53
2023-03-18T23:00:24.000Z,-3.69
2023-03-18T23:02:52.270Z,-3.61
2023-03-18T23:05:21.448Z,-4.18
2023-03-18T23:07:48.250Z,-3.92
2023-03-18T23:10:15.868Z,-3.90
2023-03-18T23:12:42.928Z,-3.99
2023-03-18T23:15:16.526Z,-3.86
2023-03-18T23:17:44.095Z,-4.14
2023-03-18T23:20:13.195Z,-4.09
2023-03-18T23:22:41.162Z,-4.14
2023-03-18T23:25:13.580Z,-4.11
2023-03-18T23:27:46.008Z,-4.06
2023-03-18T23:30:13.170Z,-4.14
2023-03-18T23:32:40.692Z,-4.15
2023-03-18T23:35:08.553Z,-4.03
2023-03-18T23:37:35.785Z,-4.02
2023-03-18T23:40:02.848Z,-4.22
2023-03-18T23:42:29.914Z,-4.37
2023-03-18T23:44:56.658Z,-4.31
2023-03-18T23:47:23.337Z,-4.74
2023-03-18T23:49:49.856Z,-4.59
2023-03-18T23:52:16.724Z,-5.12
2023-03-18T23:54:43.273Z,-5.00
2023-03-18T23:57:11.136Z,-5.31
2023-03-18T23:59:38.218Z,-5.54
